Time;durP1;ratioP1;P1;durP2;ratioP2;P2;SDS_P1;SDS_P2;PMS_P1;PMS_P2;Temp;Humidity;BMP_temperature;BMP_pressure;BME280_temperature;BME280_humidity;BME280_pressure;Samples;Min_cycle;Max_cycle;Signal;HPM_P1;HPM_P2
2022/05/24 00:01:10;;;;;;;4.82;3.72;;;10.20;83.90;;;;;;4898841;29;20060;-83
2022/05/24 00:03:39;;;;;;;12.05;4.60;;;10.20;84.00;;;;;;4898840;29;20071;-83
2022/05/24 00:06:08;;;;;;;12.05;3.90;;;10.20;84.10;;;;;;4898159;29;20513;-82
2022/05/24 00:08:36;;;;;;;8.95;4.05;;;10.20;84.20;;;;;;4897776;29;20600;-81
2022/05/24 00:11:04;;;;;;;4.47;3.00;;;10.20;84.30;;;;;;4897249;29;20056;-81
2022/05/24 00:13:32;;;;;;;8.05;4.25;;;10.10;84.50;;;;;;4898158;29;20522;-80
2022/05/24 00:16:00;;;;;;;4.43;3.45;;;10.10;84.70;;;;;;4898747;29;20057;-81
2022/05/24 00:18:29;;;;;;;7.35;3.80;;;10.00;85.10;;;;;;4897945;29;20059;-83
2022/05/24 00:21:03;;;;;;;6.50;3.70;;;10.00;85.30;;;;;;4897594;29;20072;-83
2022/05/24 00:23:32;;;;;;;4.10;3.58;;;9.90;85.50;;;;;;4898491;29;20048;-82
2022/05/24 00:26:14;;;;;;;11.73;4.68;;;9.90;85.80;;;;;;4898296;29;20052;-83
2022/05/24 00:28:41;;;;;;;4.25;3.85;;;9.90;86.00;;;;;;4888057;29;20047;-82
2022/05/24 00:31:09;;;;;;;8.10;4.05;;;9.90;86.20;;;;;;4897972;29;20512;-82
2022/05/24 00:33:36;;;;;;;4.30;3.10;;;9.90;86.30;;;;;;4896619;29;20044;-82
2022/05/24 00:36:04;;;;;;;8.50;3.47;;;9.80;86.70;;;;;;4897510;29;20482;-83
2022/05/24 00:38:39;;;;;;;9.90;4.00;;;9.80;86.70;;;;;;4912722;29;20049;-81
2022/05/24 00:41:28;;;;;;;5.53;3.50;;;9.80;86.90;;;;;;4898779;29;20048;-81
2022/05/24 00:44:00;;;;;;;7.90;3.60;;;9.80;86.90;;;;;;4898060;29;20044;-82
2022/05/24 00:46:47;;;;;;;5.90;3.13;;;9.80;86.90;;;;;;4912591;29;20049;-82
2022/05/24 00:49:22;;;;;;;4.65;2.83;;;9.80;86.90;;;;;;4897684;29;20399;-81
2022/05/24 00:52:15;;;;;;;7.93;3.60;;;9.80;87.00;;;;;;4898114;29;20063;-82
2022/05/24 00:54:50;;;;;;;9.65;3.10;;;9.80;87.00;;;;;;4886936;29;20048;-82
2022/05/24 00:57:29;;;;;;;7.90;3.42;;;9.80;87.00;;;;;;4912115;29;20049;-82
2022/05/24 01:00:07;;;;;;;3.28;2.70;;;9.80;87.10;;;;;;4897307;29;20060;-81
2022/05/24 01:02:36;;;;;;;3.92;3.03;;;9.70;87.30;;;;;;4892682;29;20064;-82
2022/05/24 01:05:06;;;;;;;3.85;3.20;;;9.70;87.40;;;;;;4898028;29;20525;-82
2022/05/24 01:07:34;;;;;;;5.40;3.28;;;9.70;87.50;;;;;;4898735;29;20060;-81
2022/05/24 01:10:09;;;;;;;6.97;2.88;;;9.60;87.60;;;;;;4897418;29;20049;-81
2022/05/24 01:13:07;;;;;;;11.63;2.95;;;9.60;87.70;;;;;;4897406;29;20053;-81
2022/05/24 01:15:36;;;;;;;9.00;3.50;;;9.60;87.70;;;;;;4896857;29;20407;-81
2022/05/24 01:18:06;;;;;;;8.07;3.28;;;9.60;87.70;;;;;;4879695;29;20426;-81
2022/05/24 01:20:34;;;;;;;4.55;3.17;;;9.60;87.70;;;;;;4895846;29;20060;-81
2022/05/24 01:23:37;;;;;;;4.68;3.05;;;9.60;87.70;;;;;;4897311;29;20052;-81
2022/05/24 01:26:32;;;;;;;6.37;2.73;;;9.60;87.70;;;;;;4896579;29;20064;-81
2022/05/24 01:29:04;;;;;;;4.55;2.50;;;9.70;87.60;;;;;;4915768;29;20044;-80
2022/05/24 01:37:08;;;;;;;3.60;2.85;;;9.70;87.50;;;;;;4915977;29;20052;-80
2022/05/24 01:39:36;;;;;;;6.07;3.40;;;9.70;87.50;;;;;;4933345;29;20054;-82
2022/05/24 01:42:06;;;;;;;8.05;3.35;;;9.70;87.50;;;;;;4929873;29;20044;-81
2022/05/24 01:44:43;;;;;;;5.85;2.85;;;9.70;87.50;;;;;;4916032;29;20394;-80
2022/05/24 01:47:12;;;;;;;7.78;3.22;;;9.60;87.60;;;;;;4899000;29;20383;-81
2022/05/24 01:49:45;;;;;;;3.33;2.75;;;9.60;87.60;;;;;;4915218;29;20402;-81
2022/05/24 01:52:19;;;;;;;6.93;3.35;;;9.60;87.50;;;;;;4915502;29;20107;-81
2022/05/24 01:54:54;;;;;;;6.18;3.20;;;9.60;87.50;;;;;;4914807;29;20067;-81
2022/05/24 01:57:26;;;;;;;8.70;3.08;;;9.60;87.60;;;;;;4914639;29;20078;-81
2022/05/24 01:59:56;;;;;;;6.18;3.03;;;9.50;87.60;;;;;;4915166;29;20051;-81
2022/05/24 02:02:26;;;;;;;5.75;2.90;;;9.50;87.60;;;;;;4910710;29;20044;-81
2022/05/24 02:04:54;;;;;;;6.32;2.75;;;9.50;87.60;;;;;;4915400;29;20052;-82
2022/05/24 02:07:24;;;;;;;6.80;3.00;;;9.50;87.60;;;;;;4914439;29;20442;-82
2022/05/24 02:09:55;;;;;;;5.97;2.53;;;9.60;87.60;;;;;;4914379;29;20045;-80
2022/05/24 02:12:46;;;;;;;6.35;2.80;;;9.60;87.60;;;;;;4915289;29;20059;-80
2022/05/24 02:15:18;;;;;;;5.32;2.80;;;9.60;87.60;;;;;;4915803;29;20421;-81
2022/05/24 02:18:04;;;;;;;6.72;2.95;;;9.50;87.60;;;;;;4914695;29;20401;-80
2022/05/24 02:20:35;;;;;;;3.75;3.20;;;9.60;87.50;;;;;;4914951;29;20371;-80
2022/05/24 02:23:08;;;;;;;4.80;3.10;;;9.70;87.50;;;;;;4912815;29;20387;-80
2022/05/24 02:25:43;;;;;;;10.60;3.25;;;9.70;87.50;;;;;;4915352;29;20055;-81
2022/05/24 02:28:12;;;;;;;5.63;3.05;;;9.70;87.50;;;;;;4899323;29;20060;-81
2022/05/24 02:30:50;;;;;;;5.57;3.15;;;9.70;87.50;;;;;;4911257;29;20406;-81
2022/05/24 02:33:20;;;;;;;5.20;3.30;;;9.70;87.50;;;;;;4883061;29;20048;-81
2022/05/24 02:35:48;;;;;;;5.43;3.25;;;9.70;87.50;;;;;;4899914;29;20401;-80
2022/05/24 02:38:17;;;;;;;5.43;3.30;;;9.70;87.50;;;;;;4883213;29;20495;-81
2022/05/24 02:43:32;;;;;;;8.23;3.72;;;9.70;87.50;;;;;;4894332;29;20060;-80
2022/05/24 02:46:00;;;;;;;5.75;3.20;;;9.70;87.50;;;;;;4899910;29;21719;-79
2022/05/24 02:48:28;;;;;;;11.57;3.97;;;9.70;87.50;;;;;;4898782;29;20052;-80
2022/05/24 02:50:55;;;;;;;5.68;3.00;;;9.70;87.50;;;;;;4899910;29;20053;-79
2022/05/24 02:53:25;;;;;;;8.85;3.40;;;9.70;87.50;;;;;;4898528;29;20063;-80
2022/05/24 02:55:52;;;;;;;6.63;3.60;;;9.70;87.60;;;;;;4900278;29;20410;-80
2022/05/24 02:58:20;;;;;;;7.90;2.90;;;9.70;87.60;;;;;;4900145;29;20048;-80
2022/05/24 03:00:47;;;;;;;6.95;2.85;;;9.70;87.70;;;;;;4898337;29;20057;-80
2022/05/24 03:03:15;;;;;;;5.70;2.50;;;9.60;87.70;;;;;;4899577;29;20049;-80
2022/05/24 03:05:43;;;;;;;6.70;2.90;;;9.70;87.70;;;;;;4899240;29;20523;-79
2022/05/24 03:10:56;;;;;;;4.97;2.90;;;9.60;87.80;;;;;;4899600;29;20048;-80
2022/05/24 03:16:13;;;;;;;4.90;1.90;;;9.60;87.80;;;;;;4899324;29;20045;-80
2022/05/24 03:18:41;;;;;;;9.80;2.60;;;9.60;87.80;;;;;;4899233;29;20056;-79
2022/05/24 03:21:09;;;;;;;8.07;2.60;;;9.60;87.80;;;;;;4899401;29;20059;-79
2022/05/24 03:23:37;;;;;;;6.50;2.40;;;9.60;87.80;;;;;;4882411;29;20049;-80
2022/05/24 03:26:04;;;;;;;13.25;3.05;;;9.50;87.80;;;;;;4898288;29;20057;-79
2022/05/24 03:28:32;;;;;;;5.35;2.50;;;9.50;87.80;;;;;;4917475;29;20089;-79
2022/05/24 03:31:04;;;;;;;9.52;2.60;;;9.50;87.90;;;;;;4917703;29;20490;-78
2022/05/24 03:33:32;;;;;;;6.70;2.40;;;9.50;87.90;;;;;;4917748;29;20419;-81
2022/05/24 03:36:01;;;;;;;7.13;2.38;;;9.50;87.90;;;;;;4917556;29;20052;-78
2022/05/24 03:38:28;;;;;;;7.00;2.47;;;9.50;87.90;;;;;;4917378;29;20052;-77
2022/05/24 03:40:56;;;;;;;8.40;2.08;;;9.50;87.90;;;;;;4902744;29;20056;-77
2022/05/24 03:43:26;;;;;;;10.70;2.10;;;9.50;87.90;;;;;;4917006;29;20051;-78
2022/05/24 03:46:01;;;;;;;7.22;2.28;;;9.50;87.90;;;;;;4917351;29;20056;-80
2022/05/24 03:48:29;;;;;;;6.18;2.45;;;9.50;87.90;;;;;;4917237;29;20074;-79
2022/05/24 03:50:57;;;;;;;4.72;1.73;;;9.40;87.90;;;;;;4916148;29;20051;-79
2022/05/24 03:53:26;;;;;;;5.53;2.05;;;9.40;88.00;;;;;;4916908;29;20375;-81
2022/05/24 03:55:54;;;;;;;8.63;2.47;;;9.50;88.00;;;;;;4917370;29;20052;-79
2022/05/24 03:58:23;;;;;;;8.00;1.80;;;9.40;87.90;;;;;;4917713;29;20048;-79
2022/05/24 04:00:51;;;;;;;3.42;1.60;;;9.50;88.00;;;;;;4917152;29;20461;-79
2022/05/24 04:03:19;;;;;;;3.95;1.50;;;9.50;88.00;;;;;;4916764;29;20052;-76
2022/05/24 04:05:49;;;;;;;5.35;1.58;;;9.50;88.00;;;;;;4917403;29;20048;-87
2022/05/24 04:08:19;;;;;;;8.88;2.28;;;9.50;87.90;;;;;;4931678;29;20055;-79
2022/05/24 04:10:47;;;;;;;9.05;1.60;;;9.50;87.90;;;;;;4931775;29;20058;-78
2022/05/24 04:13:14;;;;;;;8.95;1.80;;;9.50;87.80;;;;;;4917369;29;20051;-84
2022/05/24 04:15:42;;;;;;;9.80;2.15;;;9.50;87.80;;;;;;4917286;29;20072;-79
2022/05/24 04:18:09;;;;;;;5.40;1.40;;;9.50;87.80;;;;;;4916079;29;20055;-79
2022/05/24 04:20:37;;;;;;;10.75;1.88;;;9.50;87.70;;;;;;4930899;29;20047;-79
2022/05/24 04:23:04;;;;;;;5.35;1.65;;;9.50;87.70;;;;;;4916803;29;20506;-80
2022/05/24 04:25:34;;;;;;;4.18;1.65;;;9.50;87.70;;;;;;4916783;29;20051;-79
2022/05/24 04:28:02;;;;;;;9.60;1.45;;;9.50;87.70;;;;;;4902385;29;20052;-77
2022/05/24 04:30:30;;;;;;;10.63;1.58;;;9.50;87.70;;;;;;4897815;29;20052;-83
2022/05/24 04:32:58;;;;;;;6.13;1.80;;;9.50;87.70;;;;;;4881330;29;20055;-79
2022/05/24 04:35:26;;;;;;;3.03;1.38;;;9.50;87.70;;;;;;4897721;29;20052;-80
2022/05/24 04:37:54;;;;;;;9.68;1.75;;;9.40;87.70;;;;;;4898171;29;20052;-78
2022/05/24 04:42:18;;;;;;;7.38;1.60;;;9.40;87.70;;;;;;4898143;29;20060;-79
2022/05/24 04:43:11;;;;;;;8.32;1.70;;;9.40;87.70;;;;;;4880478;29;20056;-77
2022/05/24 04:45:38;;;;;;;6.22;1.73;;;9.30;87.70;;;;;;4897422;29;20491;-79
2022/05/24 04:48:06;;;;;;;3.60;1.10;;;9.30;87.70;;;;;;4896704;29;20470;-79
2022/05/24 04:50:38;;;;;;;8.18;1.77;;;9.20;87.80;;;;;;4897332;29;20048;-79
2022/05/24 04:53:08;;;;;;;3.15;1.25;;;9.10;87.90;;;;;;4896916;29;20496;-79
2022/05/24 04:55:36;;;;;;;4.60;1.33;;;9.10;87.90;;;;;;4897401;29;20052;-79
2022/05/24 04:58:04;;;;;;;9.65;1.60;;;9.00;87.90;;;;;;4897612;29;20386;-79
2022/05/24 05:00:31;;;;;;;6.10;1.52;;;9.00;88.00;;;;;;4898437;29;20059;-78
2022/05/24 05:03:05;;;;;;;5.93;1.60;;;9.00;88.00;;;;;;4896998;29;20428;-78
2022/05/24 05:05:34;;;;;;;7.68;1.98;;;9.00;88.10;;;;;;4897509;29;20122;-78
2022/05/24 05:08:02;;;;;;;6.78;1.67;;;9.10;88.10;;;;;;4914722;29;20055;-79
2022/05/24 05:10:29;;;;;;;7.32;1.83;;;9.20;88.10;;;;;;4910854;29;20383;-79
2022/05/24 05:12:57;;;;;;;7.97;1.60;;;9.30;88.00;;;;;;4896270;29;20060;-78
2022/05/24 05:15:25;;;;;;;10.10;1.70;;;9.40;87.80;;;;;;4897346;29;20064;-79
2022/05/24 05:18:02;;;;;;;5.20;1.73;;;9.50;87.80;;;;;;4897359;29;20536;-79
2022/05/24 05:20:32;;;;;;;7.68;1.58;;;9.50;87.70;;;;;;4897326;29;20052;-78
2022/05/24 05:22:59;;;;;;;9.38;1.52;;;9.60;87.60;;;;;;4897413;29;20064;-79
2022/05/24 05:25:27;;;;;;;6.63;1.50;;;9.60;87.60;;;;;;4880446;29;20048;-79
2022/05/24 05:27:55;;;;;;;7.18;1.85;;;9.70;87.50;;;;;;4911070;29;20055;-79
2022/05/24 05:33:08;;;;;;;8.05;1.90;;;9.70;87.50;;;;;;4916114;29;20048;-79
2022/05/24 05:35:36;;;;;;;9.60;1.38;;;9.70;87.50;;;;;;4915879;29;20063;-79
2022/05/24 05:38:10;;;;;;;9.18;1.75;;;9.80;87.30;;;;;;4902544;29;20044;-79
2022/05/24 05:40:37;;;;;;;11.55;1.58;;;9.70;87.30;;;;;;4910787;29;20063;-79
2022/05/24 05:43:05;;;;;;;5.07;1.23;;;9.80;87.30;;;;;;4913582;29;20067;-79
2022/05/24 05:45:34;;;;;;;11.45;2.25;;;9.80;87.30;;;;;;4913670;29;20048;-79
2022/05/24 05:48:01;;;;;;;2.42;1.10;;;9.80;87.30;;;;;;4928071;29;20047;-79
2022/05/24 05:50:29;;;;;;;8.55;2.50;;;9.80;87.20;;;;;;4922337;29;20043;-79
2022/05/24 05:52:56;;;;;;;5.85;1.52;;;9.80;87.20;;;;;;4907922;29;20055;-79
2022/05/24 05:55:25;;;;;;;3.85;1.48;;;10.00;87.20;;;;;;4915249;29;20052;-78
2022/05/24 05:57:53;;;;;;;2.45;1.38;;;10.10;87.20;;;;;;4916089;29;20489;-79
2022/05/24 06:00:21;;;;;;;5.90;1.10;;;10.20;87.10;;;;;;4915383;29;20097;-79
2022/05/24 06:02:48;;;;;;;10.20;2.20;;;10.20;87.00;;;;;;4912824;29;20048;-78
2022/05/24 06:05:16;;;;;;;4.07;1.33;;;10.30;87.10;;;;;;4899186;29;20055;-79
2022/05/24 06:07:44;;;;;;;3.65;1.60;;;10.40;86.90;;;;;;4910837;29;20063;-79
2022/05/24 06:10:13;;;;;;;6.28;1.45;;;10.50;86.60;;;;;;4918168;29;20048;-79
2022/05/24 06:12:40;;;;;;;4.07;1.38;;;10.50;86.50;;;;;;4916760;29;20059;-79
2022/05/24 06:15:09;;;;;;;8.63;1.98;;;10.50;86.40;;;;;;4914957;29;20052;-82
2022/05/24 06:17:49;;;;;;;3.67;1.35;;;10.50;86.30;;;;;;4917254;29;20052;-78
2022/05/24 06:20:22;;;;;;;;;;;10.40;86.20;;;;;;4884818;29;20052;-77
2022/05/24 06:22:52;;;;;;;5.82;1.88;;;10.50;86.50;;;;;;4917425;29;19938;-78
2022/05/24 06:25:22;;;;;;;4.20;1.30;;;10.60;86.60;;;;;;4914869;29;20044;-78
2022/05/24 06:27:50;;;;;;;2.67;1.25;;;10.80;86.50;;;;;;4924643;29;20055;-78
2022/05/24 06:30:20;;;;;;;5.25;1.73;;;10.90;86.30;;;;;;4916076;29;20067;-79
2022/05/24 06:32:48;;;;;;;7.75;2.40;;;11.10;86.10;;;;;;4917278;29;20051;-78
2022/05/24 06:35:17;;;;;;;6.72;1.55;;;11.20;85.80;;;;;;4915670;29;20040;-79
2022/05/24 06:37:45;;;;;;;4.78;1.33;;;11.30;85.10;;;;;;4895891;29;20048;-79
2022/05/24 06:40:16;;;;;;;2.35;1.27;;;11.40;84.70;;;;;;4917069;29;20047;-79
2022/05/24 06:42:44;;;;;;;5.20;1.50;;;11.50;84.50;;;;;;4914022;29;20043;-79
2022/05/24 06:45:12;;;;;;;4.35;1.75;;;11.70;84.30;;;;;;4913785;29;20051;-79
2022/05/24 06:47:40;;;;;;;3.95;1.30;;;11.80;84.20;;;;;;4926484;29;20059;-79
2022/05/24 06:50:10;;;;;;;4.85;1.55;;;11.80;83.10;;;;;;4927737;29;20486;-79
2022/05/24 06:52:37;;;;;;;3.40;1.40;;;11.70;83.00;;;;;;4933502;29;20050;-79
2022/05/24 06:55:06;;;;;;;6.35;1.48;;;11.60;82.90;;;;;;4924159;29;20049;-79
2022/05/24 06:57:34;;;;;;;2.75;1.13;;;11.50;83.00;;;;;;4926427;29;20063;-79
2022/05/24 07:03:00;;;;;;;9.50;1.98;;;11.50;83.10;;;;;;4926296;29;20062;-79
2022/05/24 07:05:29;;;;;;;1.83;1.13;;;11.50;83.30;;;;;;4932776;29;20513;-79
2022/05/24 07:07:59;;;;;;;4.90;1.38;;;11.70;83.30;;;;;;4922997;29;20052;-79
2022/05/24 07:10:28;;;;;;;2.72;1.20;;;11.80;83.40;;;;;;4918730;29;20056;-79
2022/05/24 07:13:02;;;;;;;1.58;0.93;;;11.90;83.30;;;;;;4917542;29;20052;-79
2022/05/24 07:15:31;;;;;;;3.72;0.68;;;12.00;82.10;;;;;;4917306;29;20055;-79
2022/05/24 07:17:58;;;;;;;6.75;1.77;;;12.10;81.50;;;;;;4932025;29;20056;-79
2022/05/24 07:20:27;;;;;;;4.82;1.60;;;12.10;79.90;;;;;;4918071;29;20065;-78
2022/05/24 07:22:55;;;;;;;1.45;0.90;;;12.10;79.80;;;;;;4932635;29;20048;-78
2022/05/24 07:25:23;;;;;;;6.80;1.25;;;12.00;80.00;;;;;;4920455;29;20040;-77
2022/05/24 07:27:50;;;;;;;1.83;0.60;;;12.00;79.90;;;;;;4916286;29;20410;-78
2022/05/24 07:30:18;;;;;;;4.22;1.08;;;12.00;80.10;;;;;;4903853;29;20051;-78
2022/05/24 07:32:45;;;;;;;2.97;0.90;;;12.10;79.80;;;;;;4898027;29;20064;-78
2022/05/24 07:35:13;;;;;;;1.65;0.60;;;12.30;79.70;;;;;;4899047;29;20045;-78
2022/05/24 07:37:41;;;;;;;3.63;0.82;;;12.50;79.50;;;;;;4899815;29;20411;-77
2022/05/24 07:45:50;;;;;;;4.30;0.77;;;12.80;77.20;;;;;;4914297;29;20055;-78
2022/05/24 07:48:19;;;;;;;3.50;0.75;;;12.80;77.50;;;;;;4913709;29;20409;-78
2022/05/24 07:50:48;;;;;;;5.00;1.15;;;13.00;75.70;;;;;;4898608;29;20403;-78
2022/05/24 07:53:16;;;;;;;2.65;0.50;;;13.00;75.70;;;;;;4899292;29;20055;-78
2022/05/24 07:55:44;;;;;;;4.57;0.93;;;13.00;75.20;;;;;;4882215;29;20044;-78
2022/05/24 07:58:13;;;;;;;3.03;0.70;;;13.00;75.30;;;;;;4889297;29;20245;-77
2022/05/24 08:00:41;;;;;;;3.97;0.80;;;13.10;75.20;;;;;;4898599;29;20055;-77
2022/05/24 08:03:09;;;;;;;3.55;0.88;;;13.10;74.70;;;;;;4882051;29;20052;-78
2022/05/24 08:05:37;;;;;;;2.75;0.70;;;13.10;74.60;;;;;;4898701;29;20418;-77
2022/05/24 08:08:07;;;;;;;5.55;0.77;;;13.00;74.70;;;;;;4898990;29;20059;-78
2022/05/24 08:10:36;;;;;;;2.83;0.60;;;13.00;74.70;;;;;;4898159;29;20056;-78
2022/05/24 08:13:06;;;;;;;2.42;0.70;;;13.00;74.20;;;;;;4896720;29;20068;-78
2022/05/24 08:15:34;;;;;;;7.22;0.90;;;13.00;74.50;;;;;;4898789;29;20041;-78
2022/05/24 08:18:03;;;;;;;1.38;0.73;;;13.20;74.30;;;;;;4898650;29;20049;-78
2022/05/24 08:20:32;;;;;;;1.70;0.90;;;13.30;74.50;;;;;;4898036;29;20060;-78
2022/05/24 08:22:59;;;;;;;2.60;0.50;;;13.50;74.10;;;;;;4898433;29;20055;-79
2022/05/24 08:25:28;;;;;;;1.70;0.80;;;13.50;73.50;;;;;;4913016;29;20053;-79
2022/05/24 08:27:58;;;;;;;0.93;0.70;;;13.30;73.40;;;;;;4881473;29;20103;-79
2022/05/24 08:30:26;;;;;;;4.15;1.10;;;13.00;74.10;;;;;;4897618;29;20052;-79
2022/05/24 08:32:56;;;;;;;2.60;1.05;;;12.80;75.20;;;;;;4898004;29;20060;-80
2022/05/24 08:35:24;;;;;;;3.50;1.00;;;12.60;76.00;;;;;;4897903;29;20055;-79
2022/05/24 08:37:52;;;;;;;5.05;1.42;;;12.50;77.00;;;;;;4898411;29;20048;-79
2022/05/24 08:40:22;;;;;;;2.28;0.68;;;12.50;78.20;;;;;;4881386;29;20056;-79
2022/05/24 08:42:55;;;;;;;2.10;0.68;;;12.70;78.70;;;;;;4897573;29;20516;-79
2022/05/24 08:48:31;;;;;;;3.00;0.60;;;12.80;75.80;;;;;;4898079;29;20045;-79
2022/05/24 08:51:15;;;;;;;1.23;0.55;;;12.90;75.20;;;;;;4896855;29;20060;-79
2022/05/24 08:53:49;;;;;;;4.35;0.95;;;13.00;74.90;;;;;;4880922;29;20044;-79
2022/05/24 08:56:29;;;;;;;2.50;0.50;;;13.10;74.60;;;;;;4894980;29;20060;-79
2022/05/24 08:59:20;;;;;;;4.03;0.50;;;13.20;73.40;;;;;;4896435;29;20495;-78
2022/05/24 09:01:49;;;;;;;2.97;0.88;;;13.20;71.80;;;;;;4896960;29;20044;-79
2022/05/24 09:04:17;;;;;;;2.67;0.40;;;13.30;72.10;;;;;;4897618;29;20502;-79
2022/05/24 09:06:59;;;;;;;3.90;0.60;;;13.50;71.70;;;;;;4897868;29;20050;-79
2022/05/24 09:09:42;;;;;;;1.65;0.52;;;13.80;70.90;;;;;;4905024;29;20056;-79
2022/05/24 09:12:31;;;;;;;4.78;0.80;;;13.80;70.40;;;;;;4896275;29;20399;-79
2022/05/24 09:15:17;;;;;;;1.02;0.32;;;13.90;69.60;;;;;;4911789;29;20486;-79
2022/05/24 09:18:22;;;;;;;2.72;0.70;;;13.80;68.40;;;;;;4886552;29;20064;-80
2022/05/24 09:20:50;;;;;;;0.45;0.20;;;13.60;68.80;;;;;;4880535;29;20049;-79
2022/05/24 09:23:24;;;;;;;2.30;0.40;;;13.30;68.60;;;;;;4900758;29;20059;-79
2022/05/24 09:26:03;;;;;;;0.63;0.28;;;13.00;69.60;;;;;;4914240;29;20109;-80
2022/05/24 09:28:45;;;;;;;3.95;0.73;;;12.80;69.80;;;;;;4907364;29;20506;-79
2022/05/24 09:31:30;;;;;;;1.75;0.68;;;12.80;70.30;;;;;;4896862;29;20557;-79
2022/05/24 09:34:05;;;;;;;0.60;0.20;;;12.80;70.40;;;;;;4895736;29;20339;-79
2022/05/24 09:36:51;;;;;;;0.82;0.43;;;12.90;71.00;;;;;;4894177;29;20056;-80
2022/05/24 09:39:30;;;;;;;0.80;0.25;;;13.20;71.10;;;;;;4883144;29;20056;-79
2022/05/24 09:41:59;;;;;;;1.15;0.20;;;13.30;70.40;;;;;;4895865;29;20044;-79
2022/05/24 09:44:41;;;;;;;2.15;0.50;;;13.00;70.50;;;;;;4896649;29;20402;-79
2022/05/24 09:47:32;;;;;;;0.80;0.25;;;12.80;70.80;;;;;;4895622;29;20529;-80
2022/05/24 09:50:18;;;;;;;1.65;0.30;;;12.30;71.20;;;;;;4899017;29;20053;-80
2022/05/24 09:53:16;;;;;;;2.35;0.10;;;12.20;71.60;;;;;;4896497;29;20060;-79
2022/05/24 09:56:08;;;;;;;1.40;0.57;;;12.10;71.90;;;;;;4897112;29;20047;-79
2022/05/24 09:58:51;;;;;;;2.17;0.25;;;12.20;72.40;;;;;;4896149;29;20510;-80
2022/05/24 10:01:30;;;;;;;5.97;0.97;;;12.30;72.80;;;;;;4896601;29;20056;-79
2022/05/24 10:04:30;;;;;;;1.85;0.57;;;12.60;73.40;;;;;;4896983;29;20125;-80
2022/05/24 10:07:01;;;;;;;1.00;0.50;;;12.90;73.20;;;;;;4899104;29;20036;-79
2022/05/24 10:09:50;;;;;;;2.90;0.75;;;13.30;73.40;;;;;;4900901;29;20049;-80
2022/05/24 10:12:40;;;;;;;4.07;0.85;;;13.70;72.80;;;;;;4897006;29;20048;-79
2022/05/24 10:15:12;;;;;;;4.75;0.73;;;13.90;72.30;;;;;;4894256;29;20044;-80
2022/05/24 10:17:45;;;;;;;1.42;0.30;;;14.00;70.70;;;;;;4896200;29;20521;-80
2022/05/24 10:20:18;;;;;;;7.03;0.65;;;14.20;69.70;;;;;;4897323;29;20049;-80
2022/05/24 10:23:21;;;;;;;2.08;0.63;;;14.30;70.20;;;;;;4896473;29;20056;-81
2022/05/24 10:26:41;;;;;;;3.60;1.00;;;14.60;69.10;;;;;;4902380;29;20569;-80
2022/05/24 10:29:27;;;;;;;3.05;0.55;;;14.80;69.10;;;;;;4894576;29;20056;-80
2022/05/24 10:32:04;;;;;;;1.48;0.40;;;15.00;69.10;;;;;;4896067;29;20549;-80
2022/05/24 10:38:20;;;;;;;5.20;0.90;;;15.50;67.30;;;;;;4895689;29;20166;-80
2022/05/24 10:41:02;;;;;;;2.97;0.68;;;15.80;65.70;;;;;;4896397;29;20047;-80
2022/05/24 10:43:52;;;;;;;5.57;0.50;;;16.00;64.80;;;;;;4896220;29;20072;-80
2022/05/24 10:47:01;;;;;;;1.92;0.50;;;16.10;63.30;;;;;;4902248;29;20040;-79
2022/05/24 10:49:34;;;;;;;4.60;0.70;;;16.00;61.40;;;;;;4863184;29;20057;-79
2022/05/24 10:52:10;;;;;;;1.67;0.40;;;15.70;62.00;;;;;;4872125;29;20533;-79
2022/05/24 10:55:08;;;;;;;1.00;0.40;;;15.40;60.90;;;;;;4899849;29;20394;-79
2022/05/24 10:57:54;;;;;;;0.57;0.20;;;15.40;61.90;;;;;;4883862;29;20056;-78
2022/05/24 11:00:29;;;;;;;3.65;0.60;;;15.80;61.00;;;;;;4900533;29;20060;-79
2022/05/24 11:03:10;;;;;;;2.05;0.38;;;15.70;61.00;;;;;;4899595;29;20052;-78
2022/05/24 11:05:47;;;;;;;1.52;0.50;;;15.40;61.60;;;;;;4885532;29;20059;-78
2022/05/24 11:08:44;;;;;;;5.03;0.80;;;15.10;62.20;;;;;;4898820;29;20067;-78
2022/05/24 11:11:38;;;;;;;2.83;0.50;;;14.80;63.00;;;;;;4883217;29;20515;-78
2022/05/24 11:14:20;;;;;;;6.55;1.65;;;15.00;63.50;;;;;;4902818;29;20055;-82
2022/05/24 11:16:50;;;;;;;1.83;0.43;;;15.30;62.60;;;;;;4904743;29;20051;-78
2022/05/24 11:19:25;;;;;;;2.45;0.57;;;15.70;60.70;;;;;;4883396;29;20051;-80
2022/05/24 11:22:17;;;;;;;2.08;0.43;;;16.00;58.00;;;;;;4899340;29;20056;-78
2022/05/24 11:25:11;;;;;;;3.75;0.32;;;16.30;58.40;;;;;;4898742;29;20502;-78
2022/05/24 11:27:46;;;;;;;2.85;0.38;;;16.50;55.50;;;;;;4898340;29;20510;-79
2022/05/24 11:30:19;;;;;;;2.78;0.55;;;16.80;55.50;;;;;;4899582;29;20052;-78
2022/05/24 11:33:06;;;;;;;2.05;0.50;;;16.90;54.30;;;;;;4898976;29;20041;-78
2022/05/24 11:35:40;;;;;;;3.15;0.60;;;16.70;54.80;;;;;;4892548;29;20402;-78
2022/05/24 11:38:22;;;;;;;3.50;0.88;;;16.40;55.40;;;;;;4917777;29;20059;-80
2022/05/24 11:41:01;;;;;;;1.95;0.25;;;16.10;56.50;;;;;;4895987;29;20056;-78
2022/05/24 11:43:38;;;;;;;3.83;0.85;;;15.80;57.30;;;;;;4879551;29;20506;-78
2022/05/24 11:46:34;;;;;;;1.58;0.65;;;15.70;58.10;;;;;;4898887;29;20075;-78
2022/05/24 11:49:04;;;;;;;3.10;0.60;;;15.80;59.10;;;;;;4900848;29;20041;-78
2022/05/24 11:51:41;;;;;;;0.70;0.20;;;15.90;56.40;;;;;;4899328;29;20056;-78
2022/05/24 11:54:29;;;;;;;1.52;0.60;;;15.90;55.90;;;;;;4898986;29;20052;-78
2022/05/24 11:57:00;;;;;;;2.35;0.32;;;16.30;54.40;;;;;;4891863;29;20064;-78
2022/05/24 11:59:40;;;;;;;1.13;0.40;;;16.70;53.20;;;;;;4898594;29;20566;-78
2022/05/24 12:02:25;;;;;;;2.05;0.40;;;16.70;52.80;;;;;;4871453;29;20048;-79
2022/05/24 12:07:56;;;;;;;1.10;0.22;;;16.60;52.20;;;;;;4898846;29;20068;-78
2022/05/24 12:10:26;;;;;;;1.70;0.40;;;16.80;51.60;;;;;;4898488;29;20044;-77
2022/05/24 12:13:02;;;;;;;3.63;0.40;;;17.20;51.70;;;;;;4898318;29;20057;-77
2022/05/24 12:15:30;;;;;;;1.15;0.35;;;17.60;51.50;;;;;;4897084;29;20048;-76
2022/05/24 12:17:57;;;;;;;3.17;0.40;;;17.70;50.20;;;;;;4898418;29;20047;-78
2022/05/24 12:20:34;;;;;;;2.65;0.38;;;17.30;49.20;;;;;;4898698;29;20053;-78
2022/05/24 12:23:04;;;;;;;2.97;0.30;;;16.90;48.70;;;;;;4898733;29;20487;-78
2022/05/24 12:26:03;;;;;;;6.40;0.30;;;16.30;48.90;;;;;;4898134;29;20064;-78
2022/05/24 12:28:34;;;;;;;1.38;0.40;;;16.30;50.30;;;;;;4913642;29;20063;-77
2022/05/24 12:31:17;;;;;;;1.98;0.40;;;16.80;50.50;;;;;;4917309;29;20529;-78
2022/05/24 12:34:13;;;;;;;3.90;1.05;;;17.40;49.70;;;;;;4917082;29;20047;-78
2022/05/24 12:36:40;;;;;;;1.73;0.30;;;18.20;49.40;;;;;;4916505;29;20048;-78
2022/05/24 12:39:28;;;;;;;2.55;0.68;;;18.30;46.70;;;;;;4900477;29;20055;-77
2022/05/24 12:41:58;;;;;;;2.13;0.40;;;17.80;47.00;;;;;;4900027;29;20051;-77
2022/05/24 12:44:32;;;;;;;1.48;0.32;;;17.30;48.10;;;;;;4929070;29;20055;-78
2022/05/24 12:47:05;;;;;;;0.65;0.40;;;16.70;49.00;;;;;;4916451;29;20394;-78
2022/05/24 12:49:53;;;;;;;8.52;0.80;;;16.40;50.40;;;;;;4900574;29;20517;-77
2022/05/24 12:52:27;;;;;;;5.45;0.40;;;16.50;51.40;;;;;;4915634;29;20040;-77
2022/05/24 12:55:00;;;;;;;5.60;0.65;;;17.10;50.90;;;;;;4931868;29;20064;-78
2022/05/24 12:57:31;;;;;;;0.40;0.20;;;17.40;49.10;;;;;;4916923;29;20040;-77
2022/05/24 13:00:04;;;;;;;2.97;0.20;;;17.20;48.70;;;;;;4922731;29;20056;-78
2022/05/24 13:02:35;;;;;;;3.10;0.50;;;16.80;49.20;;;;;;4924030;29;20052;-77
2022/05/24 13:05:13;;;;;;;3.67;0.70;;;16.50;50.40;;;;;;4916674;29;20055;-77
2022/05/24 13:07:47;;;;;;;2.95;0.60;;;16.30;51.40;;;;;;4934935;29;20156;-77
2022/05/24 13:10:22;;;;;;;5.78;0.40;;;16.10;51.50;;;;;;4935493;29;20043;-78
2022/05/24 13:12:57;;;;;;;7.70;0.75;;;16.00;52.10;;;;;;4935754;29;20051;-77
2022/05/24 13:15:34;;;;;;;3.28;0.40;;;16.30;52.20;;;;;;4918187;29;20052;-77
2022/05/24 13:18:12;;;;;;;4.55;0.90;;;17.30;50.70;;;;;;4916221;29;20047;-78
2022/05/24 13:20:44;;;;;;;1.83;0.22;;;17.80;47.50;;;;;;4916126;29;20055;-78
2022/05/24 13:23:14;;;;;;;2.83;0.43;;;17.80;47.20;;;;;;4916421;29;20059;-78
2022/05/24 13:26:08;;;;;;;2.15;0.50;;;18.00;47.20;;;;;;4916205;29;20047;-78
2022/05/24 13:28:53;;;;;;;3.65;0.60;;;18.80;46.30;;;;;;4914015;29;20434;-78
2022/05/24 13:34:36;;;;;;;0.30;0.10;;;20.30;42.80;;;;;;4916299;29;20044;-78
2022/05/24 13:37:11;;;;;;;3.88;0.65;;;20.60;42.20;;;;;;4916297;29;20505;-78
2022/05/24 13:39:39;;;;;;;3.20;0.30;;;20.20;42.50;;;;;;4915201;29;20521;-77
2022/05/24 13:42:11;;;;;;;4.65;0.50;;;19.40;42.80;;;;;;4916072;29;20052;-78
2022/05/24 13:45:13;;;;;;;5.88;0.93;;;18.60;44.80;;;;;;4916041;29;20044;-78
2022/05/24 13:47:47;;;;;;;6.40;0.57;;;17.90;46.60;;;;;;4916158;29;20055;-77
2022/05/24 13:50:50;;;;;;;4.22;1.00;;;17.60;47.60;;;;;;4916012;29;20051;-78
2022/05/24 13:53:30;;;;;;;7.80;0.95;;;17.30;48.40;;;;;;4884460;29;20066;-77
2022/05/24 13:56:00;;;;;;;8.50;1.40;;;17.10;50.50;;;;;;4898905;29;20553;-77
2022/05/24 13:58:31;;;;;;;3.50;0.73;;;17.50;52.20;;;;;;4899215;29;20078;-78
2022/05/24 14:01:11;;;;;;;5.28;0.68;;;18.30;53.20;;;;;;4915751;29;20398;-78
2022/05/24 14:03:47;;;;;;;2.15;0.40;;;19.10;50.80;;;;;;4916011;29;20063;-77